Time;durP1;ratioP1;P1;durP2;ratioP2;P2;SDS_P1;SDS_P2;PMS_P1;PMS_P2;Temp;Humidity;BMP_temperature;BMP_pressure;BME280_temperature;BME280_humidity;BME280_pressure;Samples;Min_cycle;Max_cycle;Signal;HPM_P1;HPM_P2
2022/09/24 00:00:51;;;;;;;19.70;8.65;;;13.00;99.90;;;;;;5043250;28;20065;-72
2022/09/24 00:03:18;;;;;;;13.10;6.75;;;13.00;99.90;;;;;;5043131;28;20072;-72
2022/09/24 00:05:45;;;;;;;12.55;6.95;;;13.00;99.90;;;;;;5042836;28;20041;-72
2022/09/24 00:08:11;;;;;;;12.82;6.40;;;13.00;99.90;;;;;;5025137;28;20041;-72
2022/09/24 00:10:43;;;;;;;14.82;7.70;;;13.00;99.90;;;;;;4988573;28;20555;-72
2022/09/24 00:13:12;;;;;;;12.35;6.95;;;13.00;99.90;;;;;;5022018;28;20056;-72
2022/09/24 00:15:39;;;;;;;15.18;7.63;;;13.00;99.90;;;;;;5024096;28;20030;-72
2022/09/24 00:18:06;;;;;;;14.23;7.45;;;13.00;99.90;;;;;;5021479;28;20056;-72
2022/09/24 00:20:33;;;;;;;15.02;8.48;;;13.00;99.90;;;;;;5005862;28;20037;-72
2022/09/24 00:23:00;;;;;;;17.60;8.02;;;13.00;99.90;;;;;;5021959;28;20051;-72
2022/09/24 00:28:12;;;;;;;23.08;8.45;;;13.00;99.90;;;;;;5022008;28;20045;-73
2022/09/24 00:30:40;;;;;;;16.80;7.97;;;13.00;99.90;;;;;;5023194;28;20068;-72
2022/09/24 00:33:06;;;;;;;13.25;8.05;;;13.00;99.90;;;;;;5018053;28;20044;-71
2022/09/24 00:35:33;;;;;;;17.42;8.65;;;13.00;99.90;;;;;;5023133;28;20033;-70
2022/09/24 00:37:58;;;;;;;15.93;8.45;;;13.10;99.90;;;;;;5022278;28;20041;-70
2022/09/24 00:40:32;;;;;;;14.55;9.02;;;13.00;99.90;;;;;;5023487;28;20484;-70
2022/09/24 00:42:57;;;;;;;13.27;8.00;;;13.10;99.90;;;;;;5023823;28;20044;-70
2022/09/24 00:45:24;;;;;;;15.48;8.27;;;13.00;99.90;;;;;;5024617;28;20045;-70
2022/09/24 00:47:51;;;;;;;16.17;9.18;;;13.10;99.90;;;;;;5003834;28;20767;-70
2022/09/24 00:50:32;;;;;;;21.00;9.98;;;13.10;99.90;;;;;;5024662;28;20034;-70
2022/09/24 00:53:02;;;;;;;15.18;8.35;;;13.10;99.90;;;;;;5023010;28;20037;-70
2022/09/24 00:55:29;;;;;;;17.10;9.13;;;13.00;99.90;;;;;;5023209;28;20050;-70
2022/09/24 00:57:58;;;;;;;16.83;8.60;;;13.00;99.90;;;;;;4995912;28;20049;-70
2022/09/24 01:00:24;;;;;;;16.40;8.82;;;13.10;99.90;;;;;;5005161;28;20391;-70
2022/09/24 01:02:53;;;;;;;18.58;8.77;;;13.00;99.90;;;;;;5005033;28;20564;-71
2022/09/24 01:05:19;;;;;;;22.10;9.00;;;13.10;99.90;;;;;;5021105;28;20116;-70
2022/09/24 01:07:47;;;;;;;20.02;9.05;;;13.10;99.90;;;;;;5020597;28;20044;-70
2022/09/24 01:10:46;;;;;;;16.83;9.52;;;13.10;99.90;;;;;;5021710;28;20057;-71
2022/09/24 01:13:09;;;;;;;18.05;9.13;;;13.10;99.90;;;;;;5021128;28;20045;-70
2022/09/24 01:15:46;;;;;;;16.15;9.70;;;13.10;99.90;;;;;;5021083;28;20488;-70
2022/09/24 01:18:39;;;;;;;14.73;7.82;;;13.10;99.90;;;;;;5022430;28;20374;-70
2022/09/24 01:21:21;;;;;;;17.17;9.25;;;13.10;99.90;;;;;;5019596;28;20789;-71
2022/09/24 01:24:01;;;;;;;17.45;9.25;;;13.00;99.90;;;;;;5021957;28;20042;-70
2022/09/24 01:26:55;;;;;;;18.85;8.93;;;13.00;99.90;;;;;;5019768;28;20040;-70
2022/09/24 01:29:44;;;;;;;13.90;8.10;;;13.00;99.90;;;;;;5023398;28;20207;-70
2022/09/24 01:32:17;;;;;;;17.65;9.85;;;13.00;99.90;;;;;;5022190;28;20128;-71
2022/09/24 01:34:47;;;;;;;15.98;8.60;;;13.00;99.90;;;;;;5021761;28;20448;-71
2022/09/24 01:37:16;;;;;;;15.40;8.80;;;13.00;99.90;;;;;;5020182;28;20029;-71
2022/09/24 01:39:45;;;;;;;17.50;9.93;;;13.00;99.90;;;;;;5021106;28;20091;-71
2022/09/24 01:42:12;;;;;;;21.70;9.10;;;13.00;99.90;;;;;;5021632;28;20041;-71
2022/09/24 01:44:43;;;;;;;14.18;7.75;;;13.00;99.90;;;;;;5021788;28;20080;-71
2022/09/24 01:47:11;;;;;;;17.40;9.00;;;13.00;99.90;;;;;;5021628;28;20044;-71
2022/09/24 01:49:36;;;;;;;16.50;9.00;;;13.00;99.90;;;;;;5021864;28;20683;-71
2022/09/24 01:52:06;;;;;;;17.38;9.35;;;13.00;99.90;;;;;;5022011;28;20056;-71
2022/09/24 01:54:37;;;;;;;18.58;9.88;;;13.00;99.90;;;;;;5004539;28;20404;-71
2022/09/24 01:57:16;;;;;;;18.20;9.65;;;13.00;99.90;;;;;;5018898;28;20525;-71
2022/09/24 01:59:50;;;;;;;22.08;9.52;;;13.00;99.90;;;;;;5022078;28;20072;-71
2022/09/24 02:02:27;;;;;;;19.75;9.50;;;13.00;99.90;;;;;;5022506;28;20033;-71
2022/09/24 02:05:00;;;;;;;16.60;8.65;;;13.00;99.90;;;;;;5019256;28;20403;-71
2022/09/24 02:07:33;;;;;;;22.27;10.25;;;13.10;99.90;;;;;;5003611;28;20120;-71
2022/09/24 02:09:59;;;;;;;16.73;9.02;;;13.00;99.90;;;;;;5001494;28;20577;-71
2022/09/24 02:12:40;;;;;;;17.95;8.73;;;13.10;99.90;;;;;;5021727;28;20116;-71
2022/09/24 02:15:16;;;;;;;17.52;9.38;;;13.00;99.90;;;;;;5022377;28;20052;-71
2022/09/24 02:17:47;;;;;;;17.88;9.10;;;13.00;99.90;;;;;;5020802;28;20087;-70
2022/09/24 02:20:18;;;;;;;14.50;8.25;;;13.00;99.90;;;;;;5020164;28;20251;-71
2022/09/24 02:22:46;;;;;;;12.68;7.50;;;13.00;99.90;;;;;;5019928;28;20037;-71
2022/09/24 02:25:16;;;;;;;20.13;10.10;;;13.00;99.90;;;;;;5000693;28;20052;-71
2022/09/24 02:27:42;;;;;;;20.55;10.38;;;13.00;99.90;;;;;;5021345;28;20029;-71
2022/09/24 02:30:09;;;;;;;16.35;9.00;;;13.00;99.90;;;;;;5002993;28;20119;-71
2022/09/24 02:32:38;;;;;;;18.60;9.23;;;13.00;99.90;;;;;;5021666;28;20442;-71
2022/09/24 02:35:07;;;;;;;17.77;9.40;;;13.00;99.90;;;;;;5019251;28;20037;-71
2022/09/24 02:37:36;;;;;;;23.13;10.07;;;13.00;99.90;;;;;;5020734;28;20053;-71
2022/09/24 02:40:06;;;;;;;16.60;7.93;;;13.00;99.90;;;;;;5020347;28;20037;-71
2022/09/24 02:42:31;;;;;;;16.95;9.73;;;13.00;99.90;;;;;;5021240;28;20033;-71
2022/09/24 02:44:59;;;;;;;20.58;9.18;;;13.00;99.90;;;;;;5022282;28;20041;-71
2022/09/24 02:47:25;;;;;;;15.43;8.38;;;13.00;99.90;;;;;;5020726;28;20060;-71
2022/09/24 02:49:51;;;;;;;21.38;10.15;;;13.00;99.90;;;;;;5020160;28;20063;-71
2022/09/24 02:52:17;;;;;;;18.17;9.10;;;13.00;99.90;;;;;;5019796;28;20369;-71
2022/09/24 02:54:43;;;;;;;17.23;8.57;;;13.00;99.90;;;;;;5022922;28;20507;-70
2022/09/24 02:57:09;;;;;;;20.35;10.05;;;13.00;99.90;;;;;;5020252;28;20045;-70
2022/09/24 02:59:35;;;;;;;15.95;8.57;;;13.00;99.90;;;;;;5020671;28;20075;-71
2022/09/24 03:02:01;;;;;;;14.23;8.25;;;13.00;99.90;;;;;;5002753;28;20068;-71
2022/09/24 03:04:28;;;;;;;21.35;10.27;;;13.00;99.90;;;;;;5020243;28;20037;-70
2022/09/24 03:06:53;;;;;;;21.13;9.27;;;13.00;99.90;;;;;;5020742;28;20049;-71
2022/09/24 03:09:19;;;;;;;17.23;8.32;;;13.00;99.90;;;;;;5004771;28;20045;-71
2022/09/24 03:11:46;;;;;;;15.60;8.60;;;13.00;99.90;;;;;;5020088;28;20037;-71
2022/09/24 03:14:12;;;;;;;18.77;8.25;;;12.90;99.90;;;;;;5020600;28;20112;-70
2022/09/24 03:16:38;;;;;;;15.07;8.23;;;13.00;99.90;;;;;;5021048;28;20116;-71
2022/09/24 03:19:04;;;;;;;19.25;8.70;;;12.90;99.90;;;;;;5019933;28;20045;-71
2022/09/24 03:21:30;;;;;;;17.48;8.52;;;12.90;99.90;;;;;;5023430;28;20037;-71
2022/09/24 03:23:55;;;;;;;17.58;8.77;;;12.90;99.90;;;;;;5025282;28;20518;-70
2022/09/24 03:26:21;;;;;;;15.68;8.20;;;12.90;99.90;;;;;;5022644;28;20080;-70
2022/09/24 03:28:47;;;;;;;13.95;8.10;;;12.90;99.90;;;;;;5023963;28;20052;-71
2022/09/24 03:31:13;;;;;;;18.30;9.77;;;12.80;99.90;;;;;;5022678;28;20038;-71
2022/09/24 03:33:42;;;;;;;16.23;8.55;;;12.80;99.90;;;;;;4990824;28;20094;-70
2022/09/24 03:36:16;;;;;;;20.60;9.68;;;12.80;99.90;;;;;;5024365;28;20308;-71
2022/09/24 03:38:43;;;;;;;19.88;9.13;;;12.80;99.90;;;;;;5024852;28;20527;-71
2022/09/24 03:41:10;;;;;;;17.77;8.80;;;12.80;99.90;;;;;;5024164;28;20665;-71
2022/09/24 03:43:36;;;;;;;18.13;7.97;;;12.80;99.90;;;;;;5022974;28;20403;-71
2022/09/24 03:46:03;;;;;;;21.65;10.10;;;12.80;99.90;;;;;;5023401;28;20049;-71
2022/09/24 03:48:31;;;;;;;18.00;8.93;;;12.80;99.90;;;;;;5024164;28;20717;-71
2022/09/24 03:51:02;;;;;;;16.15;8.57;;;12.80;99.90;;;;;;5025455;28;20041;-71
2022/09/24 03:53:28;;;;;;;16.55;9.07;;;12.80;99.90;;;;;;5023816;28;20502;-71
2022/09/24 03:55:55;;;;;;;16.10;8.23;;;12.80;99.90;;;;;;5005992;28;20092;-71
2022/09/24 03:58:22;;;;;;;17.00;8.52;;;12.80;99.90;;;;;;4990129;28;20045;-71
2022/09/24 04:00:47;;;;;;;17.35;8.88;;;12.80;99.90;;;;;;5023932;28;20163;-71
2022/09/24 04:03:13;;;;;;;16.42;8.48;;;12.80;99.90;;;;;;5024231;28;20483;-71
2022/09/24 04:05:39;;;;;;;21.45;9.52;;;12.80;99.90;;;;;;5005002;28;20037;-71
2022/09/24 04:08:05;;;;;;;16.73;10.13;;;12.80;99.90;;;;;;5024628;28;20037;-71
2022/09/24 04:10:31;;;;;;;16.52;8.85;;;12.80;99.90;;;;;;5005813;28;20061;-71
2022/09/24 04:12:56;;;;;;;17.77;8.75;;;12.80;99.90;;;;;;5023748;28;20034;-71
2022/09/24 04:15:22;;;;;;;16.65;8.70;;;12.80;99.90;;;;;;5023463;28;20037;-71
2022/09/24 04:17:53;;;;;;;18.65;8.98;;;12.80;99.90;;;;;;5007706;28;20046;-71
2022/09/24 04:20:21;;;;;;;20.05;8.77;;;12.90;99.90;;;;;;5027831;28;20044;-71
2022/09/24 04:22:51;;;;;;;21.50;9.63;;;12.80;99.90;;;;;;5027003;28;20043;-71
2022/09/24 04:25:17;;;;;;;21.85;9.50;;;12.80;99.90;;;;;;5024068;28;20072;-71
2022/09/24 04:27:43;;;;;;;18.33;8.15;;;12.80;99.90;;;;;;5021823;28;20111;-71
2022/09/24 04:30:13;;;;;;;18.02;8.88;;;12.90;99.90;;;;;;5003938;28;20065;-71
2022/09/24 04:32:40;;;;;;;22.88;10.25;;;12.90;99.90;;;;;;5022448;28;20045;-71
2022/09/24 04:35:07;;;;;;;17.38;8.57;;;12.90;99.90;;;;;;5024362;28;20120;-71
2022/09/24 04:37:32;;;;;;;16.25;8.57;;;12.90;99.90;;;;;;5023627;28;20037;-71
2022/09/24 04:39:58;;;;;;;17.52;8.48;;;12.90;99.90;;;;;;5024624;28;20526;-71
2022/09/24 04:42:24;;;;;;;20.90;9.68;;;12.90;99.90;;;;;;5022084;28;20576;-71
2022/09/24 04:44:49;;;;;;;18.55;8.20;;;12.90;99.90;;;;;;5023145;28;20037;-71
2022/09/24 04:47:15;;;;;;;17.95;9.13;;;12.90;99.90;;;;;;5023596;28;20037;-71
2022/09/24 04:49:44;;;;;;;17.40;9.43;;;12.90;99.90;;;;;;5025119;28;20041;-71
2022/09/24 04:52:16;;;;;;;16.52;8.35;;;12.90;99.90;;;;;;5023603;28;20396;-71
2022/09/24 04:54:45;;;;;;;17.67;8.80;;;12.90;99.90;;;;;;5005389;28;20037;-71
2022/09/24 04:57:14;;;;;;;18.48;8.98;;;12.90;99.90;;;;;;5021432;28;20487;-71
2022/09/24 04:59:41;;;;;;;17.92;8.38;;;12.90;99.90;;;;;;5023133;28;20120;-71
2022/09/24 05:02:07;;;;;;;19.63;9.15;;;12.90;99.90;;;;;;5022473;28;20052;-71
2022/09/24 05:04:36;;;;;;;16.60;8.23;;;12.90;99.90;;;;;;5023336;28;20506;-71
2022/09/24 05:07:03;;;;;;;18.48;9.05;;;12.90;99.90;;;;;;5022895;28;20128;-71
2022/09/24 05:09:30;;;;;;;18.52;8.95;;;12.90;99.90;;;;;;5029515;28;20114;-71
2022/09/24 05:11:57;;;;;;;17.75;8.57;;;12.90;99.90;;;;;;5043501;28;20086;-71
2022/09/24 05:14:23;;;;;;;19.67;8.95;;;12.90;99.90;;;;;;5043306;28;20029;-71
2022/09/24 05:16:49;;;;;;;17.90;8.32;;;12.90;99.90;;;;;;5041127;28;20036;-71
2022/09/24 05:19:15;;;;;;;15.32;7.97;;;12.90;99.90;;;;;;5041869;28;20040;-71
2022/09/24 05:21:40;;;;;;;19.40;9.30;;;13.00;99.90;;;;;;5042941;28;20536;-71
2022/09/24 05:24:06;;;;;;;24.23;9.27;;;12.90;99.90;;;;;;5018494;28;20071;-71
2022/09/24 05:29:15;;;;;;;17.73;8.68;;;13.00;99.90;;;;;;5034195;28;20854;-71
2022/09/24 05:31:41;;;;;;;20.35;9.57;;;12.90;99.90;;;;;;5044292;28;20031;-71
2022/09/24 05:34:07;;;;;;;20.23;8.98;;;13.00;99.90;;;;;;5026825;28;20490;-70
2022/09/24 05:36:32;;;;;;;21.05;8.80;;;12.90;99.90;;;;;;5045133;28;20403;-71
2022/09/24 05:38:58;;;;;;;18.13;8.98;;;13.00;99.90;;;;;;5010757;28;20049;-71
2022/09/24 05:41:23;;;;;;;18.02;8.98;;;13.00;99.90;;;;;;5042782;28;20114;-71
2022/09/24 05:43:49;;;;;;;20.45;9.30;;;13.00;99.90;;;;;;5044651;28;20067;-71
2022/09/24 05:46:15;;;;;;;16.00;7.57;;;13.00;99.90;;;;;;5043124;28;20406;-70
2022/09/24 05:48:41;;;;;;;16.45;8.35;;;13.00;99.90;;;;;;5026138;28;20037;-71
2022/09/24 05:51:07;;;;;;;20.58;9.60;;;13.00;99.90;;;;;;5045082;28;20033;-70
2022/09/24 05:53:33;;;;;;;21.70;9.75;;;13.00;99.90;;;;;;5044907;28;20029;-70
2022/09/24 05:55:59;;;;;;;19.55;8.90;;;13.00;99.90;;;;;;5042872;28;20033;-70
2022/09/24 05:58:25;;;;;;;22.48;9.10;;;12.90;99.90;;;;;;5026728;28;20045;-71
2022/09/24 06:00:52;;;;;;;17.35;9.32;;;13.00;99.90;;;;;;5045475;28;20044;-71
2022/09/24 06:03:18;;;;;;;20.45;10.07;;;13.00;99.90;;;;;;5045467;28;20044;-72
2022/09/24 06:05:47;;;;;;;21.30;9.93;;;13.00;99.90;;;;;;5044665;28;20513;-71
2022/09/24 06:08:14;;;;;;;17.83;8.50;;;13.00;99.90;;;;;;5042371;28;20124;-71
2022/09/24 06:10:46;;;;;;;15.98;8.63;;;13.00;99.90;;;;;;5044195;28;20446;-71
2022/09/24 06:13:13;;;;;;;14.35;7.35;;;12.90;99.90;;;;;;5023610;28;20053;-71
2022/09/24 06:15:43;;;;;;;14.13;7.07;;;13.00;99.90;;;;;;5045260;28;20060;-71
2022/09/24 06:18:11;;;;;;;15.20;7.85;;;13.00;99.90;;;;;;5025866;28;20043;-71
2022/09/24 06:20:36;;;;;;;16.13;7.63;;;12.90;99.90;;;;;;5044471;28;20045;-71
2022/09/24 06:23:02;;;;;;;18.02;8.50;;;12.90;99.90;;;;;;5044563;28;20029;-71
2022/09/24 06:25:29;;;;;;;20.35;9.60;;;13.00;99.90;;;;;;5044918;28;20586;-71
2022/09/24 06:28:01;;;;;;;17.60;8.38;;;13.00;99.90;;;;;;5043518;28;20536;-71
2022/09/24 06:30:28;;;;;;;12.15;6.72;;;13.00;99.90;;;;;;5043065;28;20465;-72
2022/09/24 06:32:54;;;;;;;13.88;6.93;;;13.00;99.90;;;;;;5041166;28;20048;-72
2022/09/24 06:35:20;;;;;;;16.20;7.75;;;13.00;99.90;;;;;;5042619;28;20402;-71
2022/09/24 06:37:48;;;;;;;14.60;6.70;;;13.00;99.90;;;;;;5040802;28;20074;-71
2022/09/24 06:40:14;;;;;;;12.85;6.78;;;13.00;99.90;;;;;;5038874;28;20048;-72
2022/09/24 06:42:39;;;;;;;14.38;7.35;;;13.00;99.90;;;;;;5041179;28;20044;-72
2022/09/24 06:45:06;;;;;;;13.05;6.57;;;13.00;99.90;;;;;;5023470;28;20041;-72
2022/09/24 06:47:31;;;;;;;13.38;7.05;;;13.00;99.90;;;;;;5044809;28;20057;-72
2022/09/24 06:49:57;;;;;;;13.00;6.18;;;13.00;99.90;;;;;;5043506;28;20073;-72
2022/09/24 06:52:22;;;;;;;13.75;5.55;;;13.10;99.90;;;;;;5040008;28;20036;-70
2022/09/24 06:54:48;;;;;;;9.50;5.50;;;13.10;99.90;;;;;;5041493;28;20033;-72
2022/09/24 06:57:14;;;;;;;11.75;5.75;;;13.10;99.90;;;;;;5049024;28;20082;-72
2022/09/24 06:59:40;;;;;;;13.70;6.28;;;13.10;99.90;;;;;;5049407;28;20125;-71
2022/09/24 07:02:08;;;;;;;11.13;6.15;;;13.10;99.90;;;;;;5042963;28;20124;-72
2022/09/24 07:04:34;;;;;;;14.50;6.55;;;13.20;99.90;;;;;;5030437;28;20033;-72
2022/09/24 07:09:44;;;;;;;10.27;4.88;;;13.20;99.90;;;;;;5028889;28;20045;-71
2022/09/24 07:12:10;;;;;;;11.80;5.72;;;13.20;99.90;;;;;;5046072;28;20388;-71
2022/09/24 07:14:35;;;;;;;10.70;5.35;;;13.20;99.90;;;;;;5010118;28;20038;-71
2022/09/24 07:17:01;;;;;;;13.00;6.22;;;13.30;99.90;;;;;;5045224;28;20107;-71
2022/09/24 07:19:26;;;;;;;12.93;6.85;;;13.30;99.90;;;;;;5044320;28;20500;-71
2022/09/24 07:21:52;;;;;;;9.43;5.57;;;13.30;99.90;;;;;;5029890;28;20039;-71
2022/09/24 07:24:17;;;;;;;10.00;5.22;;;13.30;99.90;;;;;;5047746;28;20460;-71
2022/09/24 07:26:43;;;;;;;14.20;5.78;;;13.30;99.90;;;;;;5044628;28;20035;-71
2022/09/24 07:29:08;;;;;;;11.18;5.15;;;13.40;99.90;;;;;;5047614;28;20555;-71
2022/09/24 07:31:35;;;;;;;5.70;3.13;;;13.30;99.90;;;;;;5045662;28;20414;-71
2022/09/24 07:34:00;;;;;;;11.07;4.90;;;13.40;99.90;;;;;;5045911;28;20039;-71
2022/09/24 07:36:29;;;;;;;9.25;4.80;;;13.40;99.90;;;;;;5047336;28;20128;-72
2022/09/24 07:38:56;;;;;;;7.53;3.65;;;13.40;99.90;;;;;;5046743;28;20102;-71
2022/09/24 07:41:22;;;;;;;8.05;3.13;;;13.40;99.90;;;;;;5010532;28;20037;-72
2022/09/24 07:43:47;;;;;;;6.60;3.35;;;13.50;99.90;;;;;;5047284;28;20048;-71
2022/09/24 07:46:13;;;;;;;6.00;2.75;;;13.50;99.90;;;;;;5042386;28;20040;-72
2022/09/24 07:48:38;;;;;;;7.55;2.95;;;13.50;99.90;;;;;;5045703;28;20044;-72
2022/09/24 07:51:08;;;;;;;6.35;2.95;;;13.50;99.90;;;;;;5025328;28;20638;-73
2022/09/24 07:53:33;;;;;;;10.13;3.58;;;13.50;99.90;;;;;;5046885;28;20048;-72
2022/09/24 07:55:59;;;;;;;7.43;2.35;;;13.60;99.90;;;;;;5029741;28;20039;-72
2022/09/24 07:58:24;;;;;;;7.43;2.72;;;13.60;99.90;;;;;;5026570;28;20521;-72
2022/09/24 08:00:50;;;;;;;5.95;2.60;;;13.60;99.90;;;;;;5044923;28;20395;-71
2022/09/24 08:03:15;;;;;;;5.68;2.10;;;13.60;99.90;;;;;;5046377;28;20037;-72
2022/09/24 08:05:45;;;;;;;4.18;1.52;;;13.70;99.90;;;;;;5045837;28;20102;-72
2022/09/24 08:08:11;;;;;;;3.95;1.23;;;13.60;99.90;;;;;;5043784;28;20068;-71
2022/09/24 08:10:37;;;;;;;2.40;1.30;;;13.70;99.90;;;;;;5002935;28;20649;-71
2022/09/24 08:13:02;;;;;;;4.20;1.00;;;13.70;99.90;;;;;;5002550;28;20445;-71
2022/09/24 08:15:28;;;;;;;1.88;0.52;;;13.70;99.90;;;;;;5023484;28;20394;-71
2022/09/24 08:18:00;;;;;;;2.70;0.80;;;13.80;99.90;;;;;;5018350;28;20554;-69
2022/09/24 08:20:25;;;;;;;0.65;0.30;;;13.70;99.90;;;;;;5024428;28;20476;-71
2022/09/24 08:22:51;;;;;;;0.70;0.30;;;13.70;99.90;;;;;;5019515;28;20082;-72
2022/09/24 08:25:17;;;;;;;1.08;0.65;;;13.70;99.90;;;;;;5022755;28;20380;-72
2022/09/24 08:27:42;;;;;;;8.50;0.63;;;13.80;99.90;;;;;;5020626;28;20411;-71
2022/09/24 08:30:08;;;;;;;1.90;0.77;;;13.80;99.90;;;;;;5023714;28;20045;-72
2022/09/24 08:32:34;;;;;;;0.38;0.17;;;13.80;99.90;;;;;;5012130;28;20040;-74
2022/09/24 08:34:59;;;;;;;2.38;0.50;;;13.80;99.90;;;;;;5008328;28;20034;-72
2022/09/24 08:37:26;;;;;;;0.57;0.22;;;13.80;99.90;;;;;;5017112;28;21058;-72
2022/09/24 08:39:52;;;;;;;0.32;0.20;;;13.80;99.90;;;;;;5020662;28;20531;-72
2022/09/24 08:42:43;;;;;;;1.70;0.40;;;13.80;99.90;;;;;;5021684;28;20041;-71
2022/09/24 08:47:59;;;;;;;1.67;0.30;;;13.90;99.90;;;;;;5020632;28;20498;-76
2022/09/24 08:50:31;;;;;;;0.85;0.22;;;13.90;99.90;;;;;;4995238;28;20626;-72
2022/09/24 08:53:11;;;;;;;3.40;0.50;;;13.90;99.90;;;;;;4999500;28;20043;-73
2022/09/24 08:55:44;;;;;;;2.25;0.47;;;13.90;99.90;;;;;;5014105;28;20471;-73
2022/09/24 08:58:16;;;;;;;1.73;0.50;;;13.90;99.90;;;;;;5009858;28;20102;-73
2022/09/24 09:00:53;;;;;;;0.38;0.25;;;13.90;99.90;;;;;;5003326;28;20033;-73
2022/09/24 09:03:40;;;;;;;0.93;0.30;;;14.00;99.90;;;;;;5017224;28;20041;-73
2022/09/24 09:06:24;;;;;;;2.00;0.30;;;14.10;99.90;;;;;;5023245;28;20052;-73
2022/09/24 09:09:08;;;;;;;0.63;0.32;;;14.10;99.90;;;;;;5024352;28;20411;-73
2022/09/24 09:11:36;;;;;;;0.85;0.50;;;14.20;99.90;;;;;;5041141;28;20113;-73
2022/09/24 09:14:39;;;;;;;2.00;0.38;;;14.30;99.90;;;;;;5024776;28;20029;-72
2022/09/24 09:17:25;;;;;;;2.47;0.60;;;14.30;99.90;;;;;;5041642;28;20296;-72
2022/09/24 09:20:00;;;;;;;2.63;0.32;;;14.40;99.90;;;;;;5040697;28;20131;-72
2022/09/24 09:22:38;;;;;;;0.77;0.30;;;14.40;99.90;;;;;;5000954;28;20064;-72
2022/09/24 09:25:29;;;;;;;1.23;0.35;;;14.30;99.90;;;;;;5040038;28;20723;-72
2022/09/24 09:28:17;;;;;;;2.92;0.63;;;14.40;99.90;;;;;;5035492;28;20040;-72
2022/09/24 09:30:59;;;;;;;2.35;0.57;;;14.40;99.90;;;;;;5037752;28;20033;-73
2022/09/24 09:34:11;;;;;;;5.55;0.50;;;14.40;99.90;;;;;;5024867;28;20059;-72
2022/09/24 09:37:04;;;;;;;0.80;0.40;;;14.40;99.90;;;;;;5022080;28;20076;-72
2022/09/24 09:39:54;;;;;;;2.30;0.57;;;14.40;99.90;;;;;;5040965;28;20041;-72
2022/09/24 09:42:26;;;;;;;3.58;0.63;;;14.40;99.90;;;;;;5018389;28;20075;-72
2022/09/24 09:44:52;;;;;;;1.40;0.30;;;14.40;99.90;;;;;;5005666;28;20051;-72
2022/09/24 09:47:44;;;;;;;2.63;0.50;;;14.40;99.90;;;;;;5044492;28;20047;-72
2022/09/24 09:50:37;;;;;;;2.80;0.52;;;14.40;99.90;;;;;;5036977;28;20486;-72
2022/09/24 09:53:04;;;;;;;1.75;0.40;;;14.40;99.90;;;;;;5022515;28;20307;-72
2022/09/24 09:55:37;;;;;;;2.80;0.40;;;14.40;99.90;;;;;;5036610;28;20163;-72
2022/09/24 09:58:14;;;;;;;0.45;0.30;;;14.40;99.90;;;;;;5030819;28;20033;-72
2022/09/24 10:00:40;;;;;;;3.08;0.60;;;14.30;99.90;;;;;;5000927;28;20040;-72
2022/09/24 10:03:25;;;;;;;1.17;0.40;;;14.30;99.90;;;;;;5038614;28;20068;-73
2022/09/24 10:05:58;;;;;;;0.95;0.40;;;14.20;99.90;;;;;;5038876;28;20041;-72
2022/09/24 10:08:24;;;;;;;1.75;0.30;;;14.30;99.90;;;;;;5037621;28;20114;-72
2022/09/24 10:10:57;;;;;;;3.22;0.50;;;14.20;99.90;;;;;;5035320;28;20084;-72
2022/09/24 10:13:24;;;;;;;2.88;0.30;;;14.20;99.90;;;;;;5034356;28;20061;-72
2022/09/24 10:16:03;;;;;;;1.17;0.40;;;14.20;99.90;;;;;;5035885;28;20036;-72
2022/09/24 10:18:40;;;;;;;0.50;0.32;;;14.20;99.90;;;;;;5032860;28;20043;-72
2022/09/24 10:21:11;;;;;;;1.75;0.50;;;14.20;99.90;;;;;;5033962;28;20173;-72
2022/09/24 10:23:40;;;;;;;2.67;0.77;;;14.20;99.90;;;;;;5038280;28;20041;-72
2022/09/24 10:26:07;;;;;;;1.90;0.40;;;14.10;99.90;;;;;;5038745;28;20148;-72
2022/09/24 10:31:23;;;;;;;1.13;0.40;;;14.10;99.90;;;;;;5017871;28;20415;-73
2022/09/24 10:33:52;;;;;;;2.17;0.35;;;14.10;99.90;;;;;;5039267;28;20558;-72
2022/09/24 10:36:31;;;;;;;4.13;0.32;;;14.10;99.90;;;;;;5035672;28;20052;-72
2022/09/24 10:39:12;;;;;;;1.77;0.40;;;14.10;99.90;;;;;;5019007;28;20268;-77
2022/09/24 10:41:51;;;;;;;2.67;0.50;;;14.00;99.90;;;;;;5017498;28;20041;-72
2022/09/24 10:44:19;;;;;;;5.38;0.40;;;14.00;99.90;;;;;;5036228;28;20124;-72
2022/09/24 10:47:00;;;;;;;2.65;0.43;;;14.00;99.90;;;;;;5036979;28;20487;-71
2022/09/24 10:49:46;;;;;;;2.45;0.50;;;14.00;99.90;;;;;;5015056;28;20048;-72
2022/09/24 10:52:31;;;;;;;1.85;0.35;;;14.00;99.90;;;;;;5035401;28;20044;-72
2022/09/24 10:55:32;;;;;;;1.75;0.30;;;14.00;99.90;;;;;;5018064;28;20032;-72
2022/09/24 10:58:03;;;;;;;1.27;0.30;;;14.00;99.90;;;;;;5013635;28;20063;-73
2022/09/24 11:01:13;;;;;;;1.05;0.25;;;14.00;99.90;;;;;;5016815;28;20048;-72
2022/09/24 11:04:20;;;;;;;0.57;0.25;;;14.00;99.90;;;;;;4953255;28;20219;-73
2022/09/24 11:07:08;;;;;;;0.35;0.10;;;14.00;99.90;;;;;;5010139;28;20040;-73
2022/09/24 11:09:52;;;;;;;1.20;0.30;;;14.10;99.90;;;;;;5001972;28;21323;-73
2022/09/24 11:13:11;;;;;;;0.63;0.13;;;14.10;99.90;;;;;;5001773;28;20136;-73
2022/09/24 11:16:13;;;;;;;1.80;0.47;;;14.10;99.90;;;;;;4923675;29;20074;-73
2022/09/24 11:18:45;;;;;;;2.22;0.40;;;14.10;99.90;;;;;;5001110;28;21636;-73
2022/09/24 11:21:29;;;;;;;0.30;0.20;;;14.00;99.90;;;;;;5000767;28;20046;-73
2022/09/24 11:24:13;;;;;;;3.97;0.57;;;14.10;99.90;;;;;;5018161;28;20239;-73
2022/09/24 11:26:57;;;;;;;0.50;0.20;;;14.10;99.90;;;;;;5007054;28;20038;-73
2022/09/24 11:29:32;;;;;;;0.47;0.22;;;14.10;99.90;;;;;;4985412;28;20046;-73
2022/09/24 11:32:17;;;;;;;3.72;0.30;;;14.00;99.90;;;;;;5001872;28;20122;-72
2022/09/24 11:35:02;;;;;;;1.85;0.45;;;14.00;99.90;;;;;;4999402;28;20053;-69
2022/09/24 11:37:58;;;;;;;2.25;0.63;;;14.00;99.90;;;;;;5000639;28;20041;-72
2022/09/24 11:40:52;;;;;;;0.45;0.28;;;14.00;99.90;;;;;;5003791;28;20045;-71
2022/09/24 11:43:39;;;;;;;0.50;0.25;;;14.00;99.90;;;;;;5025897;28;20053;-71
2022/09/24 11:46:45;;;;;;;0.50;0.25;;;14.00;99.90;;;;;;5024814;28;20045;-71
2022/09/24 11:49:45;;;;;;;1.58;0.40;;;14.00;99.90;;;;;;5009096;28;20050;-71
2022/09/24 11:52:13;;;;;;;0.38;0.30;;;14.00;99.90;;;;;;5024863;28;20041;-71
2022/09/24 11:54:54;;;;;;;0.50;0.15;;;14.00;99.90;;;;;;5009867;28;20041;-71
2022/09/24 11:57:33;;;;;;;2.08;0.57;;;14.00;99.90;;;;;;5018678;28;20119;-71
2022/09/24 12:00:07;;;;;;;0.40;0.15;;;14.00;99.90;;;;;;5008732;28;20073;-71
2022/09/24 12:02:42;;;;;;;0.45;0.30;;;14.00;99.90;;;;;;5001073;28;20053;-71
2022/09/24 12:05:26;;;;;;;1.55;0.43;;;14.00;99.90;;;;;;5022097;28;20056;-72
2022/09/24 12:08:03;;;;;;;2.28;0.50;;;14.00;99.90;;;;;;5026626;28;20048;-71
2022/09/24 12:10:44;;;;;;;1.33;0.50;;;14.00;99.90;;;;;;5009638;28;20111;-71
2022/09/24 12:13:40;;;;;;;0.50;0.17;;;14.00;99.90;;;;;;5026960;28;20120;-71
2022/09/24 12:16:10;;;;;;;8.40;0.40;;;14.00;99.90;;;;;;5008114;28;20109;-71
2022/09/24 12:19:03;;;;;;;0.05;0.05;;;14.00;99.90;;;;;;5008212;28;20100;-71
2022/09/24 12:21:33;;;;;;;1.95;0.20;;;14.00;99.90;;;;;;5024302;28;20045;-71
2022/09/24 12:24:03;;;;;;;0.60;0.20;;;14.00;99.90;;;;;;5008727;28;20091;-71
2022/09/24 12:26:34;;;;;;;1.13;0.52;;;14.00;99.90;;;;;;5008506;28;20043;-71
2022/09/24 12:32:53;;;;;;;0.38;0.20;;;14.00;99.90;;;;;;5025975;28;20037;-71
2022/09/24 12:35:45;;;;;;;1.33;0.30;;;14.00;99.90;;;;;;5009086;28;20076;-71
2022/09/24 12:38:22;;;;;;;2.95;0.40;;;14.00;99.90;;;;;;5022893;28;20475;-71
2022/09/24 12:41:25;;;;;;;0.30;0.20;;;14.00;99.90;;;;;;5024096;28;20626;-71
2022/09/24 12:44:09;;;;;;;4.88;0.63;;;14.00;99.90;;;;;;5007813;28;20099;-72
2022/09/24 12:46:54;;;;;;;0.50;0.28;;;14.00;99.90;;;;;;5023778;28;20045;-72
2022/09/24 12:49:25;;;;;;;0.60;0.30;;;14.00;99.90;;;;;;5015830;28;20049;-72
2022/09/24 12:52:15;;;;;;;0.55;0.22;;;14.00;99.90;;;;;;5006129;28;20103;-72
2022/09/24 12:54:42;;;;;;;2.38;0.40;;;14.00;99.90;;;;;;4995903;28;20050;-72
2022/09/24 12:57:22;;;;;;;1.02;0.35;;;14.00;99.90;;;;;;5021013;28;20064;-72
2022/09/24 12:59:58;;;;;;;0.73;0.20;;;14.00;99.90;;;;;;5024181;28;20542;-72
2022/09/24 13:02:27;;;;;;;1.40;0.47;;;14.10;99.90;;;;;;5006225;28;20426;-72
2022/09/24 13:05:02;;;;;;;2.63;0.65;;;14.00;99.90;;;;;;5006142;28;20084;-72
2022/09/24 13:07:39;;;;;;;0.30;0.13;;;14.00;99.90;;;;;;5025606;28;20049;-71
2022/09/24 13:10:32;;;;;;;1.85;0.28;;;14.00;99.90;;;;;;5035489;28;20326;-71
2022/09/24 13:12:59;;;;;;;0.60;0.20;;;14.00;99.90;;;;;;5038352;28;20040;-71
2022/09/24 13:15:37;;;;;;;4.15;0.38;;;14.00;99.90;;;;;;5023624;28;20191;-71
2022/09/24 13:18:14;;;;;;;0.35;0.10;;;13.90;99.90;;;;;;5040127;28;20107;-71
2022/09/24 13:20:41;;;;;;;0.65;0.30;;;13.90;99.90;;;;;;5041699;28;20284;-71
2022/09/24 13:23:11;;;;;;;2.72;0.30;;;13.90;99.90;;;;;;5039934;28;20077;-72